Saint John, Washington
Current Conditions -  °F | °C
As of 5:53 AM on Tuesday 27 Jan 2015 (Local Time) from KPUW Reporting Station
Clear Clear  
Wind Chill: 36°   Ceiling: Unl
Heat Index: 41°   Visibility: 10mi
Dew Point: 34°   Wind: 8mph
Humidity: 76%   Direction: 90°E
Pressure: 30"   Gusts: NA
Location:  47.09°N, 117.58°W
Report Text: KPUW 271353Z AUTO 09007KT 10SM CLR 05/01 A3000 RMK AO2 SLP166 T00500011
Loading
Personal Weather Stations






























Interactive Weather Map New forecast layout! Learn more

10-Day Weather Forecast

Advertisements
Track Severe Weather on mobile